Timeline UpdatesTrip UpdatesNews PostsPvt PostsTravel TipsAdmin PostsConv PostsFollowed PostsChat RequestsBlog PostsPNR Posts

Disclaimer
Search
 
 
Thu Oct 2, 2014 03:52:21 ISTHomeTrainsΣChainsAtlasPNRForumGalleryNewsFAQTripsMembersLoginFeedback
No Recent News for this Train
Other Trains in the News **new
Latest...
.
Fri May 09, 2014 (11:38PM)
⇐ Return Journey: Train# 22852

22851/Santragachi - Mangalore (Vivek) Express

Time-Table HAS CHANGED.
Sep 02 (12:45AM)
Change Departure Station:
Change Arrival Station:
Post a Train Travel TipPost a Train Travel Tip **new
Post a Comment/Question/Picture/VideoPost a Comment/Question/Picture/Video
Inaugural Run
Sun Feb 19, 2012
Pantry/Catering
✕ NO Pantry Car
✓ Catering Avbl
Loco/Rake Reversals
VSKP/Visakhapatnam Junction (8);
RSA - Rake Sharing
Rake/Coach Composition
SRC-VSKP : Loco-SLR-GS-S1-S2-S3-S4-S5-S6-S7-S8-S9-S10-B1-B2-B3-A1-GS-GS-SLR; VSKP-MAQ : Loco-SLR-GS-GS-A1-B3-B2-B1-S10-S9-S8-S7-S6-S5-S4-S3-S2-S1-GS-SLR.; CC updated as per Entry#613114
Loco
SRC - VSKP :- WAM-4 / WAP-4 VSKP - SRR :-...
Read more...
WAM-4 / WAP-4 SRR - MAQ :- WDM-3A / WDM-3D
News    PNR    Forum    Time-Table    Availability    Fare Chart    Map    Arr/Dep History    Trips    Gallery    ΣChains    X/O    Timeline    
Travel Time: 41h 25m    37 halts    Distance: 2488 km    Avg Speed: 60 km/hr
Type: SuperFast
Zone: SER/South Eastern
Departs @ 16:05
Platform# 2
    T  
Kolkata Santragachi Junction/SRC 
Arrives @ 09:30 +2 nights
Platform# ???
      S
Mangalore Central/MAQ 

37 halts. 414 intermediate Stations between Kolkata Santragachi Junction and Mangalore Central

Hide intermediate Stations  Show Old Time-Table

#CodeStation NameX/OArrivesAvgDepartsAvgHaltPFDay#KmSpeedElevZoneAddress
1SRCKolkata Santragachi Junction (6)»  -16:05-210.0767mSERDist: Howrah - 711104, West Bengal
1.1MRGMMaurigram (3)  16:07-16:07-  13.0 768mSERDist - Howrah, West Bengal
1.2ADLAndul (5)  16:09-16:09-  14.7 7610mSERPin: 711302, West Bengal
1.3SELSankrail (4)  16:12-16:12-  18.3 760mSERSankrail, West Bengal
1.4ABBAbada (3)  16:13-16:13-  110.3 767mSERPin: 711313, West Bengal
1.5NALRNalpur (4)  16:15-16:15-  112.8 765mSERHowrah, West Bengal
1.6BVABauria Junction (5)  16:18-16:18-  116.5 767mSERHowrah, West Bengal
1.7CGAChengel (5)  16:21-16:21-  119.6 768mSERNational Highway 6, West Bengal
1.8FLRPhuleswar (5)  16:23-16:23-  122.2 7610mSERHowrah, West Bengal
1.9ULBUluberia (6)  16:25-16:25-  124.7 7610mSERdist - howrah, West Bengal
1.10BSBPBir Shibpur (4)  16:28-16:28-  128.7 765mSERDist: Howrah, West Bengal
1.11KGYKulgachia (3)X  16:30-16:30-  132.2 767mSERHowrah, West Bengal
1.12BZNBagnan (4)  16:35-16:35-  137.6 768mSERBagnan, West Bengal
1.13GGTAGhoraghata (2)  16:37-16:37-  140.3 768mSERGraghata Station, West Bengal
1.14DTEDeulti (5)  16:39-16:39-  143.4 769mSERDeulty, West Bengal
1.15QGTKolaghat (3)X  16:43-16:43-  147.6 7611mSERNational Highway 6, West Bengal
1.16MCAMecheda (6)  16:45-16:45-  150.8 7610mSERdist - purba Medinipur, West Bengal
1.17NDGJNandaigajan P.H. (2)O  16:48-16:48-  153.8 767mSERNH41, West Bengal
1.18BOPBhogpur (4)  16:49-16:49-  156.1 767mSERMedinipur, West Bengal
1.19PKEOPanskura East Outer  16:51-16:51-  158.8 764mSERPanskura, West Bengal
1.20NPMRNarayan Pakuria Murail (2)  16:52-16:52-  159.8 764mSERPanskura- 721171, West Bengal
1.21PKUPanskura Junction (6)  16:55-16:55-  163.2 769mSERPanskura, West Bengal
1.22KHAIKhirai (3)  16:59-16:59-  168.3 7611mSERPaschim Medinipur, West Bengal
1.23HAURHaur (4)  17:02-17:02-  172.8 7612mSERMedinipur, West Bengal
1.24RDURadhamohanpur (2)  17:06-17:06-  177.1 7617mSERDist: West Medinipur, West Bengal
1.25DUANDuan (2)X  17:08-17:08-  180.3 7617mSERDist: West Medinipur, West Bengal
1.26BCKBalichak (4)  17:11-17:11-  183.4 7621mSERKharagpur, West Bengal
1.27SMCKShyam Chak (4)X  17:15-17:15-  188.8 7620mSERDist: West Medinipur, West Bengal
1.28MPDMadpur (4)O  17:20-17:20-  194.7 7627mSERKharagpur, West Bengal
1.29JPRJakpur (4)  17:24-17:24-  1100.5 7628mSERJakpur, West Bengal
2KGPKharagpur Junction (10)X  17:30-17:35-5m--1107.69042mSERKharagpur, West Bengal
2.1HIJHijli (2)  17:38-17:38-  1111.4 9048mSERdist - paschim medinipur, West Bengal
2.2BPEBenapurX  17:43-17:43-  1119.5 9035mSERNational Highway 60, West Bengal
2.3NYANarayangarh (4)  17:50-17:50-  1130.6 9024mSERKasba Narayangarh, West Bengal
2.4VKDBakhrabad (3)  17:55-17:55-  1137.1 9015mSERMedinipur, West Bengal
2.5CNTContai Road  17:59-17:59-  1143.0 9024mSERDist - Pashim medinipur, West Bengal
2.6BLDABelda (4)  17:59-17:59-  1143.1 9024mSERDistrict Paschim Medinipur, West Bengal
2.7NSINekurseni (3)  18:04-18:04-  1151.1 9024mSERNikursini, West Bengal
2.8DNTDantan  18:10-18:10-  1159.7 9019mSERNational Highway 60, West Bengal
2.9AGVAngua (3)X  18:13-18:13-  1164.1 9017mSERWest Medinipore, West Bengal
2.10LXDLakshannath Road (4)  18:17-18:17-  1170.1 9017mSERDist. Balasore, Odisha
3JERJaleswar (4)  18:21-18:23-2m--1176.26813mSERJaleswar, Odisha
3.1RGTRajghat Halt (2)  18:30-18:30-  1183.9 6817mSERRajghat, Odisha
3.2ARDAmarda Road (4)  18:35-18:35-  1190.3 6811mSERAmarda Road, Odisha
3.3BTSBasta (3)  18:40-18:40-  1195.6 6816mSERBasta, Odisha
3.4NMBRN Mayurbhanj Road (3)X  18:44-18:44-  1200.4 6811mSERBaleswar, Odisha
3.5ROPRupsa Junction (5)  18:49-18:49-  1205.8 6813mSERRupsa, Odisha
3.6HIPHaldipada (4)X  18:55-18:55-  1211.9 689mSERHaldipada, Odisha
3.7TKPLTikirapal Halt  19:01-19:01-  1218.7 688mSERBaleswar, Odisha
4BLSBalasore (4)X  19:05-19:07-2m--1223.67619mSERBalasore, Odisha
4.1NGRDNilgiri Road  19:15-19:15-  1234.3 7614mSERBaleswar, Odisha
4.2KHFKhantapara  19:19-19:19-  1239.1 7615mSERKhantaparha, Odisha
4.3PNPNPanpana  19:23-19:23-  1244.1 7615mSERKhantaparha, Odisha
4.4BNBRBahanaga Bazar  19:27-19:27-  1248.5 7619mSERBalasore Distt., Odisha
4.5SOROSoro  19:34-19:34-  1257.1 7614mSERSoro, Odisha
4.6SZZSabiraX  19:40-19:40-  1265.8 7614mSERNational Highway 5, Odisha
4.7MKOMarkona  19:45-19:45-  1271.9 7618mSERMarkuna, Odisha
4.8RNTLRanitalO  19:50-19:50-  1278.3 7622mSERBhadrak, Odisha
4.9BHCBhadrak (4)X  19:56-19:56-  1286.1 7623mECoRBhadrak, Odisha
4.10BUDRBaudpur  20:02-20:02-  1292.5 7621mECoRBhadrak, Odisha
4.11KPLDKapali Road  20:05-20:05-  1296.9 7620mECoRKantia, Odisha
4.12KEDKenduapada  20:09-20:09-  1301.6 7623mECoRBhadrak, Odisha
4.13MZZManjuri Road  20:14-20:14-  1308.5 7628mECoRBhadrak, Odisha
4.14DLPTDulakhapatna  20:17-20:17-  1312.4 7627mECoRBandalo, Odisha
4.15BTVBaitarani RoadX  20:22-20:22-  1317.9 7627mECoRBaitarani, Odisha
4.16KRIHKorai Halt  20:27-20:27-  1324.8 7630mECoRJajapur, Odisha
5JJKRJajpur Keonjhar Road (4)  20:31-20:33-2m--1329.87636mECoRJajpur, Odisha
5.1JKPRJakhapura  20:39-20:39-  1337.5 7619mECoRJajpur, Odisha
5.2BRMIBrahamani Ph  20:44-20:44-  1343.2 7622mECoRNational Highway 200, Odisha
5.3JENJenapur  20:45-20:45-  1345.4 7623mECoRNational Highway 200, Odisha
5.4NGMPNew Garh Madhopur  20:50-20:50-  1351.3 7628mECoRGarh Madhopur, Odisha
5.5HDSHaridaspur  20:58-20:58-  1361.1 7630mECoRDhanmandal, Odisha
5.6DNMDhanmandal (3)  21:02-21:02-  1366.3 7638mECoRDhanmanda, Odisha
5.7BRTGBarithengarh  21:07-21:07-  1372.7 7625mECoRCuttack, Odisha
5.8BYYByree  21:10-21:10-  1377.1 7633mECoRBairi, Odisha
5.9SJDRSri Jhadeshwar RoadX  21:14-21:14-  1381.1 7630mECoRNational Highway 5, Odisha
5.10KISKapilas Road Junction  21:18-21:18-  1386.9 7624mECoRTangi, Odisha
5.11NRGNergundiX  21:22-21:22-  1391.1 7626mECoRCuttack District, Odisha
5.12KNPRKendrapara Road  21:27-21:27-  1397.7 7629mECoRKendrapara Road, Odisha
6CTCCuttack Junction (5)  21:30-21:32-2m--1401.85128mECoRCuttack, Odisha
6.1KTJIKatha Jori  21:34-21:34-  1403.4 5128mECoRCuttack, Odisha
6.2GBKGopalpur Balkuda  21:37-21:37-  1406.2 5128mECoRGopalpur, Odisha
6.3BRAGBarang  21:46-21:46-  1413.9 5127mECoRDist - Cuttack, Odisha
6.4BBSNBhubaneswar New  21:52-21:52-  1419.0 5132mECoRBhubaneshwar, Odisha
6.5PTABPatia P.H.X  21:53-21:53-  1419.9 5130mECoRBhubaneshwar, Odisha
6.6MCSMancheswar  21:57-21:57-  1422.8 5127mECoRMancheswar, Odisha
6.7BNBHBani Bihar (2)X  22:01-22:01-  1426.2 5138mECoRBhubaneswar, Odisha
7BBSBhubaneswar (4)X  22:05-22:10-5m--1429.63840mECoRBhubaneshwar, Odisha
7.1LGTRLingaraj Temple Road  22:17-22:17-  1434.1 3839mECoRBhubaneswar, Odisha
7.2SRKTSarkantra  22:21-22:21-  1436.4 3819mECoRBhubaneswar, Odisha
7.3RTNRetangX  22:28-22:28-  1441.2 3819mECoRKhurdha, Odisha
8KURKhurda Road Junction (7)  22:40-22:45-5m--1448.67825mECoRKhordha, Odisha
8.1ARGLArgul P.H.  22:49-22:49-  1453.9 7824mECoRKhordha, Odisha
8.2KPXRKaipadar RoadX  22:52-22:52-  1457.9 7822mECoRKaipada Road, Odisha
8.3DLMHDhaulimuhan  22:56-22:56-  1462.4 7821mECoRKhordha, Odisha
8.4TAPTapang  22:59-22:59-  1466.2 7815mECoRKhordha, Odisha
8.5GLBAGolabai  23:02-23:02-  1471.0 7813mECoRKhordha, Odisha
8.6NKPNirakarpur  23:05-23:05-  1475.0 7821mECoRNirakarpur, Odisha
8.7BSDPBhusandpur  23:11-23:11-  1482.1 7820mECoRBhushandapur, Odisha
8.8MKTPMuketashwar  23:15-23:15-  1487.6 7813mECoRKhordha, Odisha
8.9KAPGKalupara Ghat  23:18-23:18-  1492.0 7810mECoRChandeswar, Odisha
8.10KUUKuhuri  23:23-23:23-  1498.7 7826mECoRKhordha, Odisha
8.11GNGDGangadharpurX  23:30-23:30-  1506.7 7822mECoRKhordha, Odisha
8.12SLZSolari  23:34-23:34-  1511.8 7818mECoRSolari, Odisha
8.13BALUBalugaon (3)  23:40-23:40-  1519.6 7811mECoR752030, Odisha
8.14CLKAChilka  23:45-23:45-  1526.9 7825mECoRBarkul, Odisha
8.15KLJIKalijai  23:49-23:49-  1532.0 7811mECoRGarh, Odisha
8.16KITKhallikot (3)  23:53-23:53-  1536.9 7813mECoRKhallikot, Odisha
8.17RBARambha  00:01-00:01-  2548.1 7814mECoRGanjam District, Odisha
8.18HMAHummaX  00:10-00:10-  2559.1 7819mECoRGanjam District, Odisha
8.19GAMGanjam  00:15-00:15-  2565.4 788mECoRGanjam, Odisha
8.20CAPCChatrapur Court (2)  00:21-00:21-  2573.3 7832mECoRChatrapur, Odisha
8.21CAPChatrapur  00:22-00:22-  2574.2 7836mECoRChatrapur, Odisha
8.22NRSPNarasimhapura  00:24-00:24-  2578.0 7850mECoRGanjam, Odisha
8.23JNPJagan Nathapur  00:31-00:31-  2587.0 7829mECoRBerhampur, Odisha
9BAMBrahmapur (3)X  00:38-00:40-2m--2595.77127mECoRBerhampur, Odisha
9.1GTAGolanthra  00:49-00:49-  2606.4 7128mECoRGanjam, Odisha
9.2SLRDSurla Road  00:54-00:54-  2611.7 7118mECoRGanjam, Odisha
9.3IPMIchchapuramX  01:01-01:01-  2620.2 7121mECoRIchchapuram, Andhra Pradesh
9.4JPIJhadupudi  01:11-01:11-  2632.0 7138mECoRSrikakulam, Andhra Pradesh
10SPTSompeta (4)X  01:16-01:18-2m--2638.27448mECoRKanchili, Andhra Pradesh
10.1BAVBaruva  01:26-01:26-  2647.6 7417mECoRSrikakulam, Andhra Pradesh
10.2MMSMandasa Road  01:33-01:33-  2657.0 7438mECoRSrikakulam, Andhra Pradesh
10.3SUDVSummadevi  01:39-01:39-  2663.5 7458mECoRSummadevi, Andhra Pradesh
10.4PSAPalasa (3)  01:44-01:44-  2670.0 7431mECoRKasibugga, Andhra Pradesh
10.5PUNPundiX  01:54-01:54-  2682.3 7438mECoRSrikakulam, Andhra Pradesh
10.6RMZRouthpuram Halt  01:59-01:59-  2688.6 7412mECoRSrikakulam, Andhra Pradesh
10.7NWPNaupada Junction  02:05-02:05-  2695.8 7413mECoRNuapada . ph.no. 08945-249728, Andhra Pradesh
10.8DGBDindu Gopala Puram HaltX  02:09-02:09-  2701.6 748mECoRPundi Rd, Andhra Pradesh
10.9KBMKotabommaliX  02:16-02:16-  2709.6 7413mECoRSrikakulam, Andhra Pradesh
10.10HCMHarishchandrapuram  02:23-02:23-  2717.8 7428mECoRNational Highway 5, Andhra Pradesh
10.11TIUTilaru (4)  02:27-02:27-  2723.3 7450mECoRSrikakulam District, Andhra Pradesh
10.12ULMUrlam  02:35-02:35-  2733.0 7419mECoRSrikakulam, Andhra Pradesh
11CHESrikakulam Road (4)  02:43-02:45-2m--2743.07234mECoRsrikakulam road ph .no. 08942-287222, Andhra Pradesh
11.1DUSIDusi  02:50-02:50-  2749.5 7228mECoRSrikakulam, Andhra Pradesh
11.2PDUPonduru  02:58-02:58-  2758.3 7239mECoRSrikakulam, Andhra Pradesh
11.3SGDMSigadam  03:06-03:06-  2768.4 7267mECoRSrikakulam, Andhra Pradesh
11.4BTVABatuva  03:13-03:13-  2776.8 72103mECoRKapusambham, Andhra Pradesh
11.5CPPChipurupalle  03:17-03:17-  2781.7 7299mECoRCheepurupalli, Andhra Pradesh
11.6GVIGarividi  03:23-03:23-  2788.2 7292mECoRGarividi Railway Station Rd, Andhra Pradesh
11.7GULGujjangivalasa  03:28-03:28-  2794.0 7267mECoRGujjangivalasa, Odisha
11.8NMLNellimarlaX  03:34-03:34-  2801.3 7237mECoRCoastal Andhra Region, Andhra Pradesh
12VZMVizianagaram Junction (5)  03:40 03:43-03:42 03:45-2m--2812.56763mECoRVizianagaram, Andhra Pradesh
12.1KUKKorukondaX  03:55-03:55-  2823.2 6738mECoRKorukonda, Andhra Pradesh
12.2ALMAlamandaX  04:01-04:01-  2830.3 6751mECoRAlamanda Road, Andhra Pradesh
12.3KPLKantakapalle  04:09-04:09-  2839.6 6779mECoRKantakapalle, Andhra Pradesh
12.4KTVKottavalasa Junction (5)X  04:16-04:16-  2847.5 6758mECoRVizianagaram District, Andhra Pradesh
12.5PDTPendurti (7)  04:24-04:24-  2856.4 6727mECoRVisakhapatnam, Andhra Pradesh
12.6SCMNSimhachalam North (5)  04:31-04:31-  2864.2 6720mECoRVishakhapatnam, Andhra Pradesh
12.7SCMSimhachalam (2)X  04:33-04:33-  2865.6 6727mECoRVisakhapatnam, Andhra Pradesh
12.8MIPMMarripalem (2)  04:36-04:36-  2869.0 6717mECoRVishakhapatnam, Andhra Pradesh
13VSKPVisakhapatnam Junction (8)X04:40-05:00-20m32873.77611mECoRVishakhapatnam 530001, Andhra Pradesh
13.1MIPMMarripalem (2)  05:04-05:04-  2878.2 7617mECoRVishakhapatnam, Andhra Pradesh
13.2GPTGopalapatnamX  05:08-05:08-  2884.3 769mECoRVisakhapatnam, Andhra Pradesh
13.3DVDDuvvada (4)  05:13-05:13-  2890.0 7646mECoRVishakhapatnam District, Andhra Pradesh
13.4THYThadiX  05:21-05:21-  2899.8 7639mSCRKonda Koppaka, Andhra Pradesh
13.5AKPAnakapalle (3)X  05:25-05:25-  2906.0 7630mSCRAnakapalle ph.no . 08924-221698, Andhra Pradesh
13.6KSKKasimkotaX  05:30-05:30-  2911.4 7638mSCRVisakhapatnam District, Andhra Pradesh
13.7BVMBayyavaram  05:33-05:33-  2915.3 7638mSCRCoastal Andhra Region, Andhra Pradesh
13.8NASPNarasingapalli  05:39-05:39-  2922.7 7620mSCRVishakhapatnam, Andhra Pradesh
13.9YLMElamanchili (2)X  05:44-05:44-  2929.8 7623mSCRVisakhapatnam District, Andhra Pradesh
13.10REGRegupalemX  05:51-05:51-  2938.2 7626mSCRVisakhapatnam District, Andhra Pradesh
13.11NRPNarsipatnam Road (2)  05:58-05:58-  2947.5 7618mSCRVisakhapatnam District, Andhra Pradesh
13.12GLUGullipadu  06:07-06:07-  2958.7 7630mSCRVisakhapatnam District, Andhra Pradesh
13.13TUNITuni (2)X  06:16-06:16-  2969.8 7624mSCRTuni ph.no. 08854-252172, Andhra Pradesh
13.14HVMHamsavaram  06:22-06:22-  2978.2 7647mSCRHamsavaram, Andhra Pradesh
13.15TMPMTimmapuram  06:26-06:26-  2982.7 7628mSCRNational Highway 5, Andhra Pradesh
13.16ANVAnnavaram (3)XO  06:29-06:29-  2986.5 7627mSCREast Godavari District, Andhra Pradesh
13.17RVDRavikampadu  06:34-06:34-  2993.4 7627mSCREast Godavari District, Andhra Pradesh
13.18DGDGDurgada Gate  06:37-06:37-  2996.3 7623mSCREast Godavari, Andhra Pradesh
13.19MVRMMallavaram  06:40-06:40-  21000.4 7614mSCRChebrolu, Andhra Pradesh
13.20GLPGollaprolu  06:44-06:44-  21005.5 7619mSCRGollaprollu, Andhra Pradesh
13.21PAPPithapuram (2)  06:48-06:48-  21011.3 7622mSCREast Godavari District, Andhra Pradesh
13.22CRPMChandrampalem  06:52-06:52-  21015.8 7615mSCRKandarada Road, Andhra Pradesh
14SLOSamalkot Junction (3)X  06:58-06:59-1m--21023.36018mSCRSamalkot, Andhra Pradesh
14.1GDPTGudapartiX  07:04-07:04-  21027.9 6021mSCRVetlapalem, Andhra Pradesh
14.2MPUMedapadu  07:08-07:08-  21032.3 6020mSCRMedapadu, Andhra Pradesh
14.3PBDPeddabrahmadevam  07:10-07:10-  21034.8 6016mSCRPedabramadvam, Andhra Pradesh
14.4BVLBikkavoluX  07:16-07:16-  21040.5 6016mSCREast Godavari District, Andhra Pradesh
14.5BBPMBalabhadrapuram  07:19-07:19-  21043.8 6023mSCRBalabhadhrapuram, Andhra Pradesh
14.6APTAnaparti (3)  07:25-07:25-  21049.8 6021mSCREast Godavari District, Andhra Pradesh
14.7DWPDwarapudi (3)  07:29-07:29-  21053.6 6020mSCREast Godavari District, Andhra Pradesh
14.8KSVMKesavaramX  07:33-07:33-  21057.9 6016mSCRKesavaram, Andhra Pradesh
14.9KYMKadiyam (1)X  07:39-07:39-  21063.5 6015mSCREast Godavari, Andhra Pradesh
15RJYRajahmundry (3)X  07:50 07:49-07:52 07:51-2m--21073.58323mSCRRajahmundry ph.no. 0883-2420541, Andhra Pradesh
15.1GVNGodavariX  07:53-07:53-  21076.5 8324mSCRRajahmundry, Andhra Pradesh
15.2KVRKovvur (3)  07:57-07:57-  21081.3 8325mSCRWest Godavari, Andhra Pradesh
15.3PSDAPasivedala (2)X  07:59-07:59-  21084.4 8322mSCRWest Godavari District, Andhra Pradesh
15.4CUChagallu  08:01-08:01-  21087.9 8318mSCRWest Godavari, Andhra Pradesh
15.5BMGMBrahmanagudem (2)X  08:05-08:05-  21092.2 8318mSCRNidadavolu, Andhra Pradesh
15.6NDDNidadavolu Junction (3)  08:07-08:07-  21095.7 8320mSCRNidadavolu jtn ph.no. 08813-210325, Andhra Pradesh
15.7MRPLMarampalliX  08:13-08:13-  21103.3 8317mSCRMarampalli Rd, Andhra Pradesh
15.8NBMNavabpalem  08:15-08:15-  21106.6 8316mSCRWest Godavari District, Andhra Pradesh
15.9PTPUPrattiapaduX  08:18-08:18-  21110.3 8316mSCRApparaopeta Rd, Andhra Pradesh
15.10TDDTadepalligudem (3)X  08:21-08:21-  21115.7 8318mSCRTadepalligudem, Andhra Pradesh
15.11BPYBadampudi  08:26-08:26-  21121.6 8320mSCRBadampudi, Andhra Pradesh
15.12VGTUnguturuO  08:30-08:30-  21127.0 8317mSCRUnguturu, Andhra Pradesh
15.13CELChebrol  08:32-08:32-  21129.9 8318mSCRWest Godavari District, Andhra Pradesh
15.14KKRMKaikaramX  08:34-08:34-  21133.4 8319mSCRKaikaram, Andhra Pradesh
15.15PUAPulla  08:37-08:37-  21137.7 8315mSCRPulla, Andhra Pradesh
15.16BMDBhimadolu (3)  08:42-08:42-  21144.4 8314mSCRBhimadolu, Andhra Pradesh
15.17STPTSitampet  08:46-08:46-  21150.0 8320mSCREGK Rd, Andhra Pradesh
15.18DELDenduluru  08:49-08:49-  21153.7 8321mSCRWest Godavari, Andhra Pradesh
16EEEluru (3)  08:56-08:57-1m--21163.43519mSCREluru Ph.no. 08812 226401., Andhra Pradesh
16.1PRHPowerpet (2)  09:00-09:00-  21164.9 3520mSCREluru, Andhra Pradesh
16.2VATVatlurX  09:12-09:12-  21171.9 3516mSCREluru, Andhra Pradesh
16.3NZDNuzvid (3)X  09:29-09:29-  21181.7 3528mSCRHanuman Junction, Andhra Pradesh
16.4VRVLViravalliO  09:40-09:40-  21188.2 3521mSCRViravalli, Andhra Pradesh
16.5TOUTelaproluX  09:45-09:45-  21191.3 3520mSCRKrishna, Andhra Pradesh
16.6PAVPPedda AvutapaleX  09:58-09:58-  21198.3 3525mSCRPedda Avutapalle, Andhra Pradesh
16.7GWMGannavaram  10:06-10:06-  21203.0 3524mSCRGannavaram, Andhra Pradesh
16.8MBDMustabada  10:18-10:18-  21209.9 3520mSCRKrishna, Andhra Pradesh
16.9GALAGunadala  10:30-10:30-  21216.8 3519mSCRGunadala Rd, Andhra Pradesh
17BZAVijayawada Junction (10)X  10:40-11:00-20m721222.87324mSCRVijayawada 520001, Andhra Pradesh
17.1KCCKrishna Canal Junction (6)X  11:04-11:04-  21227.5 7321mSCRTadepalli, Andhra Pradesh
17.2KAQKolanukonda (1)  11:07-11:07-  21230.9 7322mSCRNational Highway 5, Andhra Pradesh
17.3PVDPeddavadiapudi (3)  11:10-11:10-  21234.7 7320mSCRKL University to NH 5, Andhra Pradesh
17.4CLVRChiluvur  11:13-11:13-  21238.5 7320mSCRChiluvuru, Andhra Pradesh
17.5MODMorampudi  11:15-11:15-  21241.0 7316mSCRMorampudi, Andhra Pradesh
17.6DIGDuggirala (3)  11:18-11:18-  21244.4 7316mSCRDuggirala, Andhra Pradesh
17.7KLXKolakalurX  11:21-11:21-  21248.0 7315mSCRNandivelugu Rd, Andhra Pradesh
17.8TELTenali Junction (5)X  11:26-11:26-  21254.1 7316mSCRTel: 08644-227834, Andhra Pradesh
17.9VRUValiveruX  11:32-11:32-  21261.4 7310mSCRValiveru Railway Gate, Andhra Pradesh
17.10TSRTsunduru (3)  11:35-11:35-  21265.6 7312mSCRTsunduru, Andhra Pradesh
17.11MDKUModukuru (2)  11:38-11:38-  21269.2 7310mSCRModukuru, Andhra Pradesh
17.12NDONidubrolu (3)X  11:44-11:44-  21276.1 739mSCRNidubrolu, Andhra Pradesh
17.13MCVMMachavaramO  11:48-11:48-  21281.1 737mSCRMachavaram, Andhra Pradesh
17.14APLAppikatla (2)X  11:53-11:53-  21287.9 737mSCRGBC Rd, Andhra Pradesh
17.15BPPBapatla (3)O  12:00-12:00-  21296.7 7310mSCRBapatla, Andhra Pradesh
17.16SPFStuartpuram  12:06-12:06-  21303.5 739mSCRBapatla West Rural, Andhra Pradesh
17.17IPPMIpurupalem  12:09-12:09-  21307.5 738mSCRIpurupalem, Andhra Pradesh
17.18IPPNIpurupalem Halt (1)  12:09-12:09-  21307.6 738mSCRIpurupalem, Andhra Pradesh
17.19CLXChirala (4)  12:13-12:13-  21311.7 738mSCRChirala, Andhra Pradesh
17.20JAQJandrapeta (2)X  12:15-12:15-  21314.9 739mSCRChirala, Andhra Pradesh
17.21VTMVetapalem (3)  12:19-12:19-  21319.6 738mSCRVetapalem, Andhra Pradesh
17.22KPLLKottapandillapalli (2)  12:22-12:22-  21323.1 738mSCRNH 214A, Andhra Pradesh
17.23KVDUKadavakuduru (2)  12:25-12:25-  21327.4 738mSCRKadavakuduru, Andhra Pradesh
17.24CJMChinnaganjam (3)X  12:29-12:29-  21332.0 739mSCRChinna Ganjam, Andhra Pradesh
17.25UGDUppugunduru (2)  12:35-12:35-  21338.5 735mSCRUppugundur Machavaram Rd, Andhra Pradesh
17.26RPRLRaparla Halt (2)  12:38-12:38-  21342.9 739mSCRNH 214A, Andhra Pradesh
17.27ANBAmmanabrolu (3)X  12:41-12:41-  21346.2 7316mSCRAmmanabrolu, Andhra Pradesh
17.28KRVKaravadi (2)  12:46-12:46-  21352.5 7311mSCRKaravadi, Andhra Pradesh
18OGLOngole (3)X  12:52 12:53-12:54-2 1m321361.19612mSCROngole, Andhra Pradesh
18.1SDMSurareddipalem (3)  13:00-13:00-  21371.4 969mSCRSurareddy Palem, Andhra Pradesh
18.2TNRTanguturu (3)  13:06-13:06-  21379.7 9610mSCRTanguturu, Andhra Pradesh
18.3SKMSingarayakonda (2)O  13:12-13:12-  21389.3 9626mSCRSingarayakonda, Andhra Pradesh
18.4UPDUlavapadu (2)X  13:18-13:18-  21398.9 9613mSCRUlavapadu, Andhra Pradesh
18.5TTUTettu (2)X  13:26-13:26-  21412.8 9624mSCRNational Highway 5, Andhra Pradesh
18.6KVZKavali (4)  13:35-13:35-  21427.1 9621mSCRKavali, Andhra Pradesh
18.7SVPMSri Venkateswarapalem (2)  13:43-13:43-  21439.4 9622mSCRNational Highway 5, Andhra Pradesh
18.8BTTRBitragunta (2)  13:46-13:46-  21443.5 9615mSCRBitragunta, Andhra Pradesh
18.9AXRAlluru RoadX  13:50-13:50-  21450.1 968mSCRNational Highway 5, Andhra Pradesh
18.10TMCTalamanchi  13:57-13:57-  21461.6 9615mSCRNational Highway 5, Andhra Pradesh
18.11KJJKodavaluru (2)  14:00-14:00-  21466.3 9617mSCRNational Highway 5, Andhra Pradesh
18.12PGUPadugupadu (3)  14:04-14:04-  21473.8 9621mSCRKovur, Andhra Pradesh
19NLRNellore (4)  14:06 14:07-14:08-2 1m321477.82721mSCRNellore, Andhra Pradesh
19.1NLSNellore South (2)  14:12-14:12-  21479.8 2722mSCRNellore, Andhra Pradesh
19.2VDEVedayapalem (2)X  14:24-14:24-  21485.1 2727mSCRNellore, Andhra Pradesh
19.3VKTVenkatachalam (3)O  14:45-14:45-  21494.4 2726mSCRVenkatachelam, Andhra Pradesh
19.4KMLPKommarapudi (2)  14:59-14:59-  21501.1 278mSCRNational Highway 5, Andhra Pradesh
19.5MBLManubolu (3)  15:12-15:12-  21506.8 2722mSCRManubolu Railway Station, Andhra Pradesh
20GDRGudur Junction (3)  15:33-15:35-2m121516.37119mSCRGudur, Andhra Pradesh
20.1KQAKondagunta (1)  15:43-15:43-  21526.1 7153mSCRNellore, Andhra Pradesh
20.2VDDVendodu (2)  15:51-15:51-  21535.5 7155mSCRNellore, Andhra Pradesh
20.3NDZNidigallu (2)X  15:58-15:58-  21544.1 7155mSCRSiddavaram, Andhra Pradesh
20.4VKIVenkatagiri (3)X  16:05-16:05-  21552.1 7177mSCRNellore District, Andhra Pradesh
20.5YALYataluru  16:10-16:10-  21558.5 7178mSCRCoastal Andhra Region, Andhra Pradesh
20.6YLKYellakaru (1)  16:15-16:15-  21564.3 7173mSCRCoastal Andhra Region, Andhra Pradesh
20.7AKYAkkurti (2)  16:22-16:22-  21571.8 7169mSCRSrikalahasti, Andhra Pradesh
20.8KHTSri Kalahasti (2)  16:26-16:26-  21576.5 7168mSCRChittoor District, Andhra Pradesh
20.9RCGRachagunnari  16:31-16:31-  21583.5 7182mSCRRayalaseema Region, Andhra Pradesh
20.10YPDYerpedu (2)  16:37-16:37-  21589.8 7180mSCRChittoor, Andhra Pradesh
21RURenigunta Junction (5)  16:45-16:55-10m--21599.740113mSCRChittoor District, Andhra Pradesh
21.1TCNRTiruchanur  17:00-17:00-  21602.8 40126mSCRTirupati, Andhra Pradesh
22TPTYTirupati Main (5)  17:10-17:12-2m--21609.657150mSCRChittoor Distt, Andhra Pradesh
22.1TPWTirupati West Halt (1)  17:14-17:14-  21611.2 57160mSCRTirupati, Andhra Pradesh
22.2CGIChandragiri (1)  17:25-17:25-  21621.4 57204mSCRNarasingapuram, Andhra Pradesh
22.3KENKotalaX  17:26-17:26-  21623.2 57219mSCRRayalaseema Region, Andhra Pradesh
22.4MNPTMungilipattu  17:35-17:35-  21631.3 57257mSCRChittoor-Tirupati Rd, Andhra Pradesh
22.5PAMPanapakam (1)X  17:42-17:42-  21637.7 57281mSCRChittoor District, Andhra Pradesh
22.6PAKPakala Junction (3)  17:56-17:56-  21651.5 57371mSCRKavalivari Palle, Andhra Pradesh
22.7PTTPutalapattu  18:08-18:08-  21662.4 57330mSCRRayalaseema Region, Andhra Pradesh
22.8RVSNRVS Nagar  18:20-18:20-  21673.7 57307mSCRRVS Nagar, Andhra Pradesh
23CTOChittoor (3)  18:28-18:30-2m--21681.531305mSCR517001., Andhra Pradesh
23.1SIESiddampalliX  18:45-18:45-  21689.2 31307mSCRRayalaseema Region, Andhra Pradesh
23.2PYXPeyanapalli  18:51-18:51-  21692.5 31300mSCRRayalaseema Region, Andhra Pradesh
23.3RAMRamapuram (2)  19:03-19:03-  21698.5 315mSCRRamapuram, Andhra Pradesh
23.4BUMBommasamudram  19:14-19:14-  21704.7 31243mSCRNH 4, Andhra Pradesh
24KPDKatpadi Junction (5)X  19:33-19:35-2m321714.582213mSRVellore 632007, Tamil Nadu
24.1LTILatteri  19:41-19:41-  21722.5 82237mSRSH 59, Tamil Nadu
24.2VJVirinchipuram  19:44-19:44-  21727.0 82237mSRSH 59, Tamil Nadu
24.3KVNKavanurX  19:49-19:49-  21733.1 82250mSRSH 59, Tamil Nadu
24.4GYMGudiyattam (3)X  19:53-19:53-  21739.0 82269mSRVellore, Tamil Nadu
24.5MEHMelalathur  19:57-19:57-  21744.0 82275mSRSH 130, Tamil Nadu
24.6VLTValathoorXO  20:00-20:00-  21749.1 82284mSRSH 130, Tamil Nadu
24.7MPIMelpatti  20:05-20:05-  21754.8 82290mSRSH 130, Tamil Nadu
24.8PCKMPachachakupam  20:09-20:09-  21760.8 82307mSRNH 46, Tamil Nadu
24.9ABAmburXO  20:13-20:13-  21766.7 82330mSRAmbur, Tamil Nadu
24.10VGMVinnamangalam  20:19-20:19-  21774.6 82340mSRNH 46, Tamil Nadu
24.11VNVaniyambadi  20:25-20:25-  21782.9 82357mSRVaniyambadi, Tamil Nadu
24.12KDYKettandapatti  20:31-20:31-  21791.3 82378mSRNH 46, Tamil Nadu
24.13JTJJolarpettai Junction (5)  20:37-20:37-  21798.4 82405mSRJolarpettai, Tamil Nadu
24.14TPTTirupattur (2)  20:42-20:42-  21805.5 82392mSRTirupattur ph.no. 04179-220062, Tamil Nadu
24.15MOLKMolakarampatti  20:45-20:45-  21810.0 82377mSRSH-60 Dharmapuri Rd, Tamil Nadu
24.16KEYKagankaraiX  20:50-20:50-  21816.6 82380mSRKagankarai ph.no.04179-204191, Tamil Nadu
24.17KNNTKunnathur  20:54-20:54-  21822.6 82372mSRPuduchery Rd, Tamil Nadu
24.18SLYSamalpatti  20:59-20:59-  21828.7 82388mSRSamalpatti ph.no. 04341-245601, Tamil Nadu
24.19DSTDasampatti  21:05-21:05-  21837.4 82404mSRDasampatti Ph.no.04341-244585, Tamil Nadu
24.20DPIDoddampatti  21:11-21:11-  21845.5 82374mSRDoddampatti ph.no.04346-262222, Tamil Nadu
24.21MAPMorappur (3)  21:17-21:17-  21852.8 82402mSRDharmapuri District, Tamil Nadu
24.22TNGRThonganur  21:21-21:21-  21859.0 82435mSRThonganu, Tamil Nadu
24.23BDYBuddireddippati  21:26-21:26-  21865.4 82442mSRBuddireddippati ph.no.04346-265908, Tamil Nadu
24.24BQIBommidiX  21:33-21:33-  21875.3 820mSRBommidi ph.no. 04346-244441, Tamil Nadu
24.25LCRLokur  21:41-21:41-  21885.5 82456mSRLokur ph.no .04290-294547, Tamil Nadu
24.26DSPTDanishpet  21:47-21:47-  21894.8 82382mSRDanishpet Ph.no. 04290-242583, Tamil Nadu
24.27TNTTinnappatti  21:53-21:53-  21901.9 82331mSRTinnappatti ph.no.04290-249103, Tamil Nadu
24.28KPPRKaruppur  22:00-22:00-  21912.0 82314mSRKaruppur ph.no. 0427-2345921, Tamil Nadu
24.29MGSJMagnesite JunctionX  22:03-22:03-  21915.2 82313mSRSalem, Tamil Nadu
25SASalem Junction (6)  22:05-22:10-5m--21918.661283mSRSalem, Tamil Nadu
25.1NEANeykkarapatti  22:17-22:17-  21925.7 61261mSRUthamasolapuram, Tamil Nadu
25.2VRPDVirapandy Road (2)X  22:20-22:20-  21928.7 61270mSRVirapandy, Tamil Nadu
25.3DVBHMakudan Virapandi Block Hut  22:24-22:24-  21933.1 61273mSRPeriya Seeragapadi, Tamil Nadu
25.4DCMagudanchavadiX  22:30-22:30-  21939.5 61241mSRMagudanchavadi, Tamil Nadu
25.5MVPMMavelipalaiyam  22:43-22:43-  21952.1 61294mSRNH 47, Tamil Nadu
25.6SGESankaridurgX  22:48-22:48-  21957.2 61271mSRSankaridurg ph.no.04283-261235, Tamil Nadu
25.7ANUAnangurX  22:55-22:55-  21964.7 61218mSRAnangur ph.no.04288-274811, Tamil Nadu
25.8CVKaveri  23:05-23:05-  21975.1 61165mSRCaveri ph.no.04288-240741, Tamil Nadu
26EDErode Junction (4)X  23:10-23:15-5m221980.072175mSRErode ph.no: 0424-2256111, Tamil Nadu
26.1TPMTotiyapalayam (2)  23:20-23:20-  21986.4 72216mSRErode, Tamil Nadu
26.2PYPerunduraiX  23:26-23:26-  21993.6 72261mSRPerundurai ph.no. 04294-220545, Tamil Nadu
26.3IGRIngur  23:31-23:31-  21999.1 72282mSRErode, Tamil Nadu
26.4VZVijayamangalamX  23:38-23:38-  22006.9 72281mSRErode, Tamil Nadu
26.5UKLUttukuli (2)O  23:45-23:45-  22016.4 72300mSRUthukuli ph.no. 04294-260213, Tamil Nadu
26.6KUYTiruppur KulipalayamX  23:48-23:48-  22019.8 72292mSRTiruppur Dist, Tamil Nadu
27TUPTiruppur (2)  23:57-23:59-2m122030.240305mSRTiruppur. Ph:0421-2200450, Tamil Nadu
27.1VNJTiruppur Vanjipalayam (3)X  00:11-00:11-  32038.4 40317mSRTiruppur Dist, Tamil Nadu
27.2SNOTiruppur Somanur (2)XO  00:26-00:26-  32047.8 40341mSRTiruppur Dist, Tamil Nadu
27.3SUUSulur Road (2)  00:38-00:38-  32056.4 40364mSRSulur road ph.no .0422-2687264, Tamil Nadu
27.4IGUIrugur Junction (2)  00:48-00:48-  32062.8 40376mSRIrugur ph.no. 04294-230260, Tamil Nadu
27.5SHISinganallur (2)X  00:54-00:54-  32066.4 40390mSRCoimbatore, Tamil Nadu
27.6PLMDPilamedu (3)X  01:01-01:01-  32071.3 40420mSRPilamedu ph.no. 0422-2572333, Tamil Nadu
27.7CBFCoimbatore North (2)  01:10-01:10-  32077.7 40431mSRCoimbatore 641012, Tamil Nadu
28CBECoimbatore Main Junction (6)X  01:15-01:20-5m--32080.741416mSRCoimbatore 641001, Tamil Nadu
28.1PTJPodanur Junction (4)X  01:28-01:28-  32086.5 41400mSRPodanur jtn ph.no. 0422-2410784, Tamil Nadu
28.2MDKIMadukaraiX  01:43-01:43-  32096.4 41344mSRCoimbatore, Tamil Nadu
28.3ETMDEttimadai (2)  01:50-01:50-  32101.6 41313mSREttimadai, Tamil Nadu
28.4WRAWalayar  02:03-02:03-  32110.4 41213mSRPalakkad, Kerala
28.5CLMDChullimadaX  02:09-02:09-  32114.8 41178mSRNational Highway 47, Kerala
28.6KJKDKanjikode (2)  02:21-02:21-  32122.7 410mSRPalakkad, Kerala
28.7KTKUKottekad  02:31-02:31-  32129.8 4198mSRPalakkad, Kerala
29PGTPalakkad Junction (4)X  02:40-02:45-5m232135.95484mSRPalghat Tel: 0491 2555231, Kerala
29.1PLLParli (2)  02:55-02:55-  32145.0 5463mSRPalakkad, Kerala
29.2MNYMankara (2)X  03:03-03:03-  32152.4 5465mSRPalakkad, Kerala
29.3LDYLakkidi (2)  03:12-03:12-  32160.1 5435mSRPalakkad, Kerala
29.4PLPMPalappuram  03:17-03:17-  32164.2 5442mSRKayarampara-Meetna Rd, Kerala
29.5OTPOttappalam (2)  03:21-03:21-  32167.7 5430mSROttapalam, Kerala
29.6MNURMannanur (2)  03:29-03:29-  32174.8 5433mSRVaniamkulam Mannanur Rd, Kerala
30SRRShoranur Junction (7)03:35-03:45-10m532180.68226mSRShoranur ph.no 0466-2222913, Kerala
30.1SRRBShoranur B-Cabin  03:45-03:45-  32180.9 8228mSRShoranur, Kerala
30.2KRKDKarakad (2)  03:49-03:49-  32186.3 8231mSRKondayur Rd, Kerala
30.3PTBPattambi (2)X  03:53-03:53-  32192.1 8221mSRPattambi, Kerala
30.4KODNKodumunda  03:57-03:57-  32196.9 8219mSRThrithala, Kerala
30.5PUMPallippuram  04:00-04:00-  32201.3 825mSRPalakkad, Kerala
30.6PEUPerssannur  04:04-04:04-  32206.6 8216mSRKoodallur, Kerala
30.7KTUKuttippuram (2)  04:07-04:07-  32210.6 8217mSRKuttippuram, Kerala
30.8TUATirunnavaya (2)  04:12-04:12-  32217.0 8210mSRThirunavaya, Kerala
31TIRTirur (3)  04:18-04:20-2m--32225.6459mSRTel: 0494 2422240, Kerala
31.1TATanur (3)  04:31-04:31-  32233.6 4511mSRMalappuram, Kerala
31.2PGIParappangadi (2)  04:41-04:41-  32241.7 4519mSRParappanangadi, Kerala
31.3VLIVallikunnu (2)  04:48-04:48-  32246.7 4513mSRVallikkunnu, Kerala
31.4KNKadalundi (2)  04:55-04:55-  32252.2 458mSRKozhikode district, Kerala
31.5FKFerok (2)  05:02-05:02-  32256.9 4519mSRFeroke, Kerala
31.6KULKallayi Kozhikode South (2)  05:13-05:13-  32265.1 450mSRCalicut, Kerala
32CLTKozhikode Main (4)  05:15-05:20-5m432266.96611mSRCalicut Tel: 0495 2701234, Kerala
32.1VLLVellayil (2)  05:22-05:22-  32268.8 6615mSRCalicut, Kerala
32.2WHWest Hill (2)  05:24-05:24-  32271.4 6610mSRCalicut, Kerala
32.3ETRElattur (3)  05:31-05:31-  32278.7 6613mSRKozhikode district, Kerala
32.4CMCChemancheri (2)  05:37-05:37-  32285.8 6611mSRDist. Kozhikode, Kerala
32.5QLDKoyilandy (3)X  05:42-05:42-  32291.2 6611mSRQuilandi, Kerala
32.6VEKVellarakkad  05:47-05:47-  32296.7 6617mSRVellarakkad Railway Station, Kerala
32.7TKTTikkotti (2)X  05:50-05:50-  32300.5 6614mSRThikkodi, Kerala
32.8PYOLPayyoli (2)X  05:53-05:53-  32303.4 6612mSRPayyoli, Kerala
32.9IGLIringal (2)  05:59-05:59-  32309.4 6624mSRKochi - Panavel Rd, Kerala
33BDJVadakara (2)  06:02-06:04-2m232313.16611mSRCalicut / Station Ph No : 0496-2524254, Kerala
33.1NAUNadapuram Road  06:09-06:09-  32318.6 6618mSRMadappallly, Kerala
33.2MUKEMukkali  06:12-06:12-  32322.3 6618mSRChombala, Kerala
33.3MAHEMahe (2)  06:16-06:16-  32326.0 6616mSRMahe, Puducherry
33.4JGEJagannath Temple Gate (1)X  06:22-06:22-  32332.9 667mSRKannur District, Kerala
34TLYThalassery (2)  06:24-06:26-2m--32335.3369mSRKannur, Kerala
34.1DMDDharmadam (1)  06:33-06:33-  32339.7 3614mSRKannur District, Kerala
34.2ETKEdakkad (3)  06:40-06:40-  32343.5 3612mSRNH 17, Kerala
34.3CSKannur South  06:54-06:54-  32352.3 368mSRKannur, Kerala
35CANKannur Main (4)X  07:00-07:05-5m132355.97214mSRKannur Tel: 0497 2705555, Kerala
35.1CQLChirakkal (2)X  07:09-07:09-  32360.8 7227mSRKannur district, Kerala
35.2VAPMValapattanam (2)  07:11-07:11-  32362.8 728mSRKannur District, Kerala
35.3PPNSPappinisseri (2)  07:12-07:12-  32364.4 728mSRKannur District, Kerala
35.4KPQKannapuram (2)  07:17-07:17-  32370.4 729mSRKannur District, Kerala
35.5PAZPayangadi (2)X  07:23-07:23-  32377.9 7212mSRKannur District, Kerala
35.6ELMEzhimala  07:31-07:31-  32386.8 7215mSRKannur District, Kerala
36PAYPayyanur (3)X  07:33-07:35-2m--32389.6730mSRKannur District, Kerala
36.1TKQTrikkarippur  07:40-07:40-  32395.8 7313mSRKasargod district, Kerala
36.2CDRAChandera  07:44-07:44-  32400.1 7317mSRKasaragod, Kerala
36.3CHVCharvattur (3)O  07:47-07:47-  32404.3 7314mSRKasaragod district, Kerala
36.4NLENileshwar (2)  07:51-07:51-  32409.6 7312mSRNileswaram, Kerala
37KZEKanhangad (3)X  07:59-08:00-1m--32418.97315mSRKanhangad, Kerala
37.1BFRBekal Fort (2)  08:07-08:07-  32427.6 7311mSRPallikere, Kerala
37.2KQKKottikkulam (2)X  08:11-08:11-  32432.5 7325mSRBekal, Kerala
37.3KLADKalanad Halt  08:17-08:17-  32439.1 733mSRKasaragod, Kerala
38KGQKasaragod (3)X  08:19-08:20-1m--32442.03918mSRTel: 04994 220800, Kerala
38.1KMQKumbala (2)  08:39-08:39-  32454.2 3923mSRKumbla, Kerala
38.2UAAUppala (2)  08:54-08:54-  32464.0 3916mSRKasaragod District, Kerala
38.3MJSManjeshwar (3)XO  09:04-09:04-  32470.9 3912mSRManjeshwar, Kerala
38.4ULLUllal (2)O  09:20-09:20-  32481.2 3926mSRSomeshwar, Karnataka
38.5TKOTTokkottu (1)  09:22-09:22-  32482.8 398mSRTokkottu, Karnataka
38.6NTVTNethravathi  09:26-09:26-  32485.2 397mSRMangalore City, Karnataka
39MAQMangalore Central (4)•  09:30----32487.7-14mSRMangalore 575001, Karnataka
Scroll to Top
Scroll to Bottom